Time;durP1;ratioP1;P1;durP2;ratioP2;P2;SDS_P1;SDS_P2;PMS_P1;PMS_P2;Temp;Humidity;BMP_temperature;BMP_pressure;BME280_temperature;BME280_humidity;BME280_pressure;Samples;Min_cycle;Max_cycle;Signal;HPM_P1;HPM_P2
2022/01/28 00:02:06;;;;;;;19.42;3.13;;;4.40;99.90;;;;;;4935985;29;20047;-76
2022/01/28 00:04:32;;;;;;;19.38;3.05;;;4.50;99.90;;;;;;4936114;29;20389;-76
2022/01/28 00:06:57;;;;;;;20.85;3.40;;;4.50;99.90;;;;;;4936073;29;20051;-76
2022/01/28 00:09:23;;;;;;;19.42;4.15;;;4.50;99.90;;;;;;4936161;29;20051;-78
2022/01/28 00:11:49;;;;;;;16.73;3.70;;;4.50;99.90;;;;;;4935769;29;20090;-76
2022/01/28 00:38:44;;;;;;;14.02;2.30;;;4.80;99.90;;;;;;4822428;29;20058;-76
2022/01/28 00:41:11;;;;;;;14.55;2.63;;;4.70;99.90;;;;;;4822075;29;20066;-77
2022/01/28 00:43:36;;;;;;;13.73;2.13;;;4.60;99.90;;;;;;4806868;29;20526;-76
2022/01/28 00:46:02;;;;;;;12.15;2.40;;;4.90;99.90;;;;;;4806442;29;20054;-76
2022/01/28 00:48:28;;;;;;;9.38;2.40;;;4.50;99.90;;;;;;4821042;29;20080;-76
2022/01/28 00:50:53;;;;;;;16.27;2.30;;;4.50;99.90;;;;;;4806009;29;20058;-76
2022/01/28 00:53:19;;;;;;;8.57;2.10;;;4.60;99.90;;;;;;4821899;29;20187;-77
2022/01/28 00:55:45;;;;;;;14.50;2.35;;;4.70;99.90;;;;;;4821727;29;20058;-76
2022/01/28 00:58:10;;;;;;;16.50;1.92;;;4.70;99.90;;;;;;4806881;29;20923;-76
2022/01/28 01:00:36;;;;;;;13.77;2.38;;;4.70;99.90;;;;;;4841070;29;20053;-76
2022/01/28 01:03:02;;;;;;;8.98;1.85;;;5.50;99.90;;;;;;4858003;29;20065;-73
2022/01/28 01:05:30;;;;;;;13.02;2.40;;;4.50;99.90;;;;;;4857808;29;20486;-76
2022/01/28 01:07:56;;;;;;;11.63;1.73;;;4.50;99.90;;;;;;4858016;29;20156;-78
2022/01/28 01:10:24;;;;;;;10.82;2.20;;;4.40;99.90;;;;;;4842830;29;20520;-76
2022/01/28 01:12:49;;;;;;;10.57;2.67;;;4.50;99.90;;;;;;4858742;29;20072;-77
2022/01/28 01:15:20;;;;;;;17.42;2.60;;;4.50;99.90;;;;;;4882526;29;20496;-76
2022/01/28 01:23:02;;;;;;;17.02;2.88;;;4.50;99.90;;;;;;4935497;29;20056;-78
2022/01/28 01:25:28;;;;;;;16.48;3.17;;;4.60;99.90;;;;;;4935016;29;20056;-77
2022/01/28 01:27:56;;;;;;;12.88;2.20;;;4.60;99.90;;;;;;4935446;29;20044;-77
2022/01/28 01:30:24;;;;;;;11.63;2.20;;;4.60;99.90;;;;;;4935178;29;20044;-77
2022/01/28 01:32:50;;;;;;;12.10;2.25;;;4.60;99.90;;;;;;4935048;29;20051;-77
2022/01/28 01:35:16;;;;;;;16.35;2.92;;;4.50;99.90;;;;;;4934923;29;20054;-77
2022/01/28 01:37:41;;;;;;;13.25;2.00;;;4.40;99.90;;;;;;4934607;29;20094;-76
2022/01/28 01:40:08;;;;;;;11.93;1.90;;;4.30;99.90;;;;;;4918223;29;20056;-77
2022/01/28 01:42:47;;;;;;;19.70;2.67;;;4.20;99.90;;;;;;4935332;29;20048;-77
2022/01/28 01:53:07;;;;;;;22.55;3.22;;;4.00;99.90;;;;;;4934496;29;20110;-77
2022/01/28 01:55:33;;;;;;;20.27;3.83;;;4.00;99.90;;;;;;4917843;29;20055;-76
2022/01/28 01:57:58;;;;;;;21.65;4.00;;;4.00;99.90;;;;;;4935022;29;20391;-77
2022/01/28 02:00:24;;;;;;;17.08;3.10;;;4.00;99.90;;;;;;4920193;29;20119;-77
2022/01/28 02:02:50;;;;;;;19.50;3.65;;;4.10;99.90;;;;;;4938504;29;20408;-76
2022/01/28 02:05:16;;;;;;;14.95;2.72;;;4.20;99.90;;;;;;4938173;29;20043;-76
2022/01/28 02:07:45;;;;;;;19.15;2.80;;;4.20;99.90;;;;;;4938129;29;20051;-77
2022/01/28 02:10:11;;;;;;;17.98;3.90;;;4.20;99.90;;;;;;4938462;29;20046;-78
2022/01/28 02:12:49;;;;;;;14.07;2.83;;;4.30;99.90;;;;;;4938147;29;20055;-77
2022/01/28 02:15:15;;;;;;;15.15;2.70;;;4.30;99.90;;;;;;4938145;29;20500;-77
2022/01/28 02:17:41;;;;;;;18.77;3.75;;;4.40;99.90;;;;;;4938178;29;20048;-77
2022/01/28 02:20:27;;;;;;;13.52;3.20;;;4.40;99.90;;;;;;4938185;29;20395;-77
2022/01/28 02:22:55;;;;;;;22.90;3.40;;;4.50;99.90;;;;;;4938015;29;20048;-77
2022/01/28 02:25:27;;;;;;;27.45;3.83;;;4.50;99.90;;;;;;4920416;29;20066;-77
2022/01/28 02:27:53;;;;;;;18.42;4.70;;;4.60;99.90;;;;;;4937945;29;20131;-76
2022/01/28 02:30:18;;;;;;;25.17;4.13;;;4.60;99.90;;;;;;4937897;29;20138;-76
2022/01/28 02:32:47;;;;;;;17.80;2.88;;;4.60;99.90;;;;;;4937594;29;20171;-76
2022/01/28 02:35:12;;;;;;;14.82;3.17;;;4.50;99.90;;;;;;4937908;29;20499;-75
2022/01/28 02:37:38;;;;;;;23.80;3.50;;;4.60;99.90;;;;;;4920778;29;20103;-77
2022/01/28 02:40:05;;;;;;;18.65;3.20;;;4.60;99.90;;;;;;4920357;29;20466;-75
2022/01/28 02:45:36;;;;;;;22.08;3.45;;;4.60;99.90;;;;;;4860448;29;20441;-76
2022/01/28 02:48:06;;;;;;;19.02;4.30;;;4.60;99.90;;;;;;4860291;29;20069;-77
2022/01/28 02:50:41;;;;;;;14.75;2.80;;;4.60;99.90;;;;;;4860053;29;20545;-77
2022/01/28 02:53:09;;;;;;;16.50;3.30;;;4.60;99.90;;;;;;4860197;29;20061;-76
2022/01/28 02:55:41;;;;;;;16.95;2.95;;;4.50;99.90;;;;;;4844174;29;20068;-77
2022/01/28 02:58:22;;;;;;;20.73;4.23;;;4.50;99.90;;;;;;4860019;29;20049;-76
2022/01/28 03:00:49;;;;;;;20.67;3.95;;;4.50;99.90;;;;;;4860011;29;20438;-77
2022/01/28 03:03:18;;;;;;;17.55;3.10;;;4.60;99.90;;;;;;4859994;29;20046;-78
2022/01/28 03:05:44;;;;;;;26.95;3.53;;;4.70;99.90;;;;;;4860225;29;20066;-78
2022/01/28 03:08:11;;;;;;;19.85;3.28;;;4.70;99.90;;;;;;4844494;29;20053;-78
2022/01/28 03:15:35;;;;;;;24.33;4.60;;;4.70;99.90;;;;;;4859837;29;20061;-76
2022/01/28 03:18:13;;;;;;;18.33;3.72;;;4.70;99.90;;;;;;4844500;29;20557;-78
2022/01/28 03:20:55;;;;;;;23.42;3.75;;;4.70;99.90;;;;;;4934813;29;20118;-78
2022/01/28 03:23:21;;;;;;;25.35;3.72;;;4.70;99.90;;;;;;4937179;29;20048;-76
2022/01/28 03:25:48;;;;;;;24.90;3.70;;;4.80;99.90;;;;;;4936893;29;20036;-76
2022/01/28 03:28:15;;;;;;;19.02;3.60;;;4.90;99.90;;;;;;4936549;29;20051;-78
2022/01/28 03:30:41;;;;;;;18.15;3.65;;;4.90;99.90;;;;;;4936819;29;20047;-76
2022/01/28 03:33:07;;;;;;;16.83;3.38;;;5.00;99.90;;;;;;4936641;29;20050;-77
2022/01/28 03:35:34;;;;;;;19.10;3.95;;;4.90;99.90;;;;;;4936603;29;20122;-77
2022/01/28 03:38:02;;;;;;;14.07;2.88;;;4.90;99.90;;;;;;4936683;29;20130;-76
2022/01/28 03:40:33;;;;;;;19.13;3.50;;;5.70;99.90;;;;;;4936778;29;20118;-77
2022/01/28 03:42:58;;;;;;;14.60;3.42;;;5.00;99.90;;;;;;4936200;29;20063;-77
2022/01/28 03:45:24;;;;;;;18.77;3.17;;;5.00;99.90;;;;;;4936610;29;20047;-75
2022/01/28 03:47:50;;;;;;;15.82;3.28;;;5.00;99.90;;;;;;4936524;29;20043;-77
2022/01/28 03:50:15;;;;;;;22.55;4.97;;;5.00;99.90;;;;;;4936494;29;20126;-78
2022/01/28 03:52:41;;;;;;;14.50;2.80;;;5.00;99.90;;;;;;4936867;29;20082;-77
2022/01/28 03:55:07;;;;;;;19.92;2.92;;;5.10;99.90;;;;;;4919485;29;20048;-78
2022/01/28 03:57:33;;;;;;;24.50;4.13;;;5.10;99.90;;;;;;4919295;29;20055;-79
2022/01/28 03:59:59;;;;;;;16.58;3.00;;;5.10;99.90;;;;;;4936140;29;20480;-77
2022/01/28 04:02:28;;;;;;;12.63;2.63;;;5.10;99.90;;;;;;4936030;29;20050;-77
2022/01/28 04:12:48;;;;;;;11.82;2.80;;;5.20;99.90;;;;;;4936111;29;20056;-78
2022/01/28 04:15:48;;;;;;;14.88;3.55;;;5.20;99.90;;;;;;4918545;29;20507;-76
2022/01/28 04:18:00;;;;;;;19.23;3.20;;;5.20;99.90;;;;;;4935609;29;20131;-76
2022/01/28 04:20:25;;;;;;;18.80;3.88;;;5.20;99.90;;;;;;4936700;29;20091;-76
2022/01/28 04:22:51;;;;;;;22.08;4.53;;;5.20;99.90;;;;;;4936198;29;20044;-78
2022/01/28 04:25:17;;;;;;;20.40;3.45;;;5.20;99.90;;;;;;4939497;29;20053;-76
2022/01/28 04:27:42;;;;;;;19.92;3.30;;;5.10;99.90;;;;;;4946664;29;20028;-76
2022/01/28 04:30:09;;;;;;;18.50;4.00;;;5.10;99.90;;;;;;4929329;29;20052;-76
2022/01/28 04:32:36;;;;;;;26.45;3.67;;;5.00;99.90;;;;;;4936853;29;20040;-76
2022/01/28 04:35:02;;;;;;;18.63;3.50;;;5.00;99.90;;;;;;4936390;29;20055;-76
2022/01/28 04:40:05;;;;;;;19.70;3.30;;;5.10;99.90;;;;;;4935895;29;20102;-76
2022/01/28 04:57:48;;;;;;;23.55;3.50;;;5.20;99.90;;;;;;4935332;29;20107;-77
2022/01/28 05:00:30;;;;;;;18.25;3.50;;;5.20;99.90;;;;;;4935455;29;20055;-76
2022/01/28 05:08:12;;;;;;;20.42;4.00;;;5.20;99.90;;;;;;4935185;29;20047;-78
2022/01/28 05:24:30;;;;;;;25.10;4.38;;;5.10;99.90;;;;;;4935684;29;20048;-78
2022/01/28 05:27:06;;;;;;;22.90;4.28;;;5.10;99.90;;;;;;4918426;29;20110;-77
2022/01/28 05:29:32;;;;;;;27.38;4.00;;;5.00;99.90;;;;;;4935304;29;20048;-75
2022/01/28 05:31:57;;;;;;;23.42;4.90;;;5.00;99.90;;;;;;4935080;29;20105;-78
2022/01/28 05:34:25;;;;;;;26.88;4.47;;;5.00;99.90;;;;;;4918761;29;20052;-77
2022/01/28 05:36:51;;;;;;;25.60;4.45;;;5.00;99.90;;;;;;4921310;29;20199;-78
2022/01/28 05:39:17;;;;;;;21.50;3.95;;;5.30;99.90;;;;;;4922042;29;20126;-78
2022/01/28 05:41:43;;;;;;;19.38;3.83;;;5.10;99.90;;;;;;4922073;29;20051;-77
2022/01/28 05:44:09;;;;;;;24.88;4.38;;;5.10;99.90;;;;;;4938860;29;20483;-77
2022/01/28 05:46:35;;;;;;;25.13;4.20;;;5.10;99.90;;;;;;4939003;29;20044;-78
2022/01/28 05:49:01;;;;;;;27.15;3.85;;;5.10;99.90;;;;;;4921288;29;20059;-76
2022/01/28 05:51:26;;;;;;;20.50;4.00;;;5.10;99.90;;;;;;4938792;29;20044;-78
2022/01/28 05:53:58;;;;;;;19.70;3.83;;;5.10;99.90;;;;;;4921595;29;20055;-77
2022/01/28 05:56:25;;;;;;;20.67;3.85;;;5.10;99.90;;;;;;4938479;29;20044;-78
2022/01/28 05:58:51;;;;;;;23.80;3.60;;;5.10;99.90;;;;;;4938704;29;20448;-77
2022/01/28 06:01:17;;;;;;;24.65;4.18;;;5.10;99.90;;;;;;4921524;29;20059;-77
2022/01/28 06:03:44;;;;;;;20.38;4.05;;;5.10;99.90;;;;;;4938447;29;20043;-77
2022/01/28 06:06:18;;;;;;;22.55;3.47;;;5.20;99.90;;;;;;4938468;29;20044;-77
2022/01/28 06:08:47;;;;;;;19.33;3.22;;;5.10;99.90;;;;;;4920744;29;20060;-77
2022/01/28 06:11:13;;;;;;;21.80;4.20;;;5.20;99.90;;;;;;4938478;29;20091;-79
2022/01/28 06:13:39;;;;;;;16.80;3.92;;;5.20;99.90;;;;;;4938455;29;20094;-77
2022/01/28 06:16:05;;;;;;;24.23;4.38;;;5.20;99.90;;;;;;4921468;29;20059;-80
2022/01/28 06:18:30;;;;;;;22.05;4.68;;;5.20;99.90;;;;;;4938044;29;20051;-77
2022/01/28 06:20:56;;;;;;;20.10;3.72;;;5.10;99.90;;;;;;4920510;29;20059;-77
2022/01/28 06:23:21;;;;;;;19.42;3.08;;;5.60;99.90;;;;;;4938105;29;20044;-77
2022/01/28 06:25:48;;;;;;;19.70;4.13;;;5.00;99.90;;;;;;4937817;29;20107;-78
2022/01/28 06:28:14;;;;;;;25.20;4.15;;;5.90;99.90;;;;;;4938263;29;20055;-77
2022/01/28 06:30:40;;;;;;;22.85;4.18;;;4.90;99.90;;;;;;4937945;29;20044;-77
2022/01/28 06:33:06;;;;;;;23.27;4.00;;;4.90;99.90;;;;;;4938051;29;20190;-78
2022/01/28 06:35:31;;;;;;;21.50;4.05;;;4.90;99.90;;;;;;4937338;29;20048;-77
2022/01/28 06:37:57;;;;;;;31.90;4.72;;;4.80;99.90;;;;;;4920795;29;20130;-77
2022/01/28 06:40:22;;;;;;;20.77;4.53;;;4.80;99.90;;;;;;4937639;29;20054;-77
2022/01/28 06:42:48;;;;;;;28.05;4.50;;;4.80;99.90;;;;;;4920410;29;20207;-77
2022/01/28 06:45:14;;;;;;;27.75;4.78;;;5.10;99.90;;;;;;4937448;29;20130;-79
2022/01/28 06:47:41;;;;;;;21.35;4.82;;;4.80;99.90;;;;;;4919770;29;20050;-77
2022/01/28 06:50:09;;;;;;;16.02;3.55;;;4.80;99.90;;;;;;4920528;29;20048;-77
2022/01/28 06:52:35;;;;;;;24.02;4.47;;;4.80;99.90;;;;;;4937363;29;20055;-77
2022/01/28 06:55:01;;;;;;;18.70;2.78;;;4.80;99.90;;;;;;4919906;29;20181;-77
2022/01/28 06:57:29;;;;;;;11.68;2.10;;;4.80;99.90;;;;;;4936929;29;20468;-74
2022/01/28 06:59:55;;;;;;;10.57;2.78;;;4.80;99.90;;;;;;4919925;29;20126;-75
2022/01/28 07:02:21;;;;;;;11.82;1.67;;;4.90;99.90;;;;;;4937358;29;20408;-77
2022/01/28 07:04:47;;;;;;;10.00;1.70;;;5.00;99.90;;;;;;4937318;29;20043;-76
2022/01/28 07:07:12;;;;;;;9.32;2.05;;;4.90;99.90;;;;;;4919997;29;20052;-77
2022/01/28 07:09:38;;;;;;;13.18;1.67;;;5.70;99.90;;;;;;4934170;29;20052;-76
2022/01/28 07:12:04;;;;;;;9.55;1.60;;;4.90;99.90;;;;;;4909987;29;20071;-76
2022/01/28 07:14:30;;;;;;;14.23;1.80;;;4.80;99.90;;;;;;4910570;29;20063;-77
2022/01/28 07:16:55;;;;;;;12.98;1.58;;;4.70;99.90;;;;;;4926535;29;20103;-74
2022/01/28 07:19:21;;;;;;;10.00;1.85;;;4.70;99.90;;;;;;4919942;29;20044;-77
2022/01/28 07:21:47;;;;;;;12.80;2.10;;;5.20;99.90;;;;;;4918363;29;20480;-79
2022/01/28 07:24:12;;;;;;;11.57;1.77;;;4.70;99.90;;;;;;4900794;29;20520;-75
2022/01/28 07:26:38;;;;;;;5.82;1.40;;;4.60;99.90;;;;;;4918046;29;20055;-76
2022/01/28 07:29:04;;;;;;;11.40;2.20;;;5.40;99.90;;;;;;4918477;29;20107;-76
2022/01/28 07:31:29;;;;;;;12.40;2.92;;;4.70;99.90;;;;;;4900973;29;20059;-75
2022/01/28 07:33:55;;;;;;;15.30;1.88;;;4.70;99.90;;;;;;4918047;29;20485;-77
2022/01/28 07:36:21;;;;;;;11.45;1.35;;;4.70;99.90;;;;;;4918041;29;20052;-75
2022/01/28 07:38:46;;;;;;;11.30;1.52;;;4.70;99.90;;;;;;4900786;29;20092;-75
2022/01/28 07:41:12;;;;;;;12.95;2.72;;;4.70;99.90;;;;;;4900643;29;20094;-76
2022/01/28 07:43:39;;;;;;;11.57;1.30;;;4.70;99.90;;;;;;4917607;29;20044;-76
2022/01/28 07:46:06;;;;;;;10.23;2.63;;;4.60;99.90;;;;;;4917844;29;20044;-77
2022/01/28 07:48:31;;;;;;;14.55;1.92;;;4.60;99.90;;;;;;4884357;29;20052;-75
2022/01/28 07:50:57;;;;;;;9.70;1.98;;;4.60;99.90;;;;;;4885177;29;20055;-75
2022/01/28 07:53:23;;;;;;;20.65;1.98;;;4.60;99.90;;;;;;4900519;29;20507;-78
2022/01/28 07:55:49;;;;;;;12.27;1.98;;;4.50;99.90;;;;;;4917188;29;20060;-78
2022/01/28 07:58:14;;;;;;;9.35;1.52;;;4.50;99.90;;;;;;4899365;29;20441;-75
2022/01/28 08:00:42;;;;;;;11.57;2.35;;;4.40;99.90;;;;;;4916224;29;20086;-73
2022/01/28 08:03:08;;;;;;;9.95;1.55;;;5.20;99.90;;;;;;4935026;29;20154;-72
2022/01/28 08:05:33;;;;;;;4.35;1.38;;;4.50;99.90;;;;;;4935457;29;20571;-73
2022/01/28 08:08:04;;;;;;;20.17;2.08;;;4.50;99.90;;;;;;4917931;29;20051;-74
2022/01/28 08:10:30;;;;;;;12.48;2.17;;;4.50;99.90;;;;;;4917609;29;20075;-74
2022/01/28 08:12:56;;;;;;;15.63;3.25;;;5.40;99.90;;;;;;4937895;29;20054;-74
2022/01/28 08:15:22;;;;;;;15.85;2.83;;;4.40;99.90;;;;;;4923382;29;20495;-75
2022/01/28 08:17:49;;;;;;;10.95;1.67;;;4.30;99.90;;;;;;4921822;29;20147;-75
2022/01/28 08:20:15;;;;;;;13.32;1.83;;;4.70;99.90;;;;;;4918551;29;20059;-75
2022/01/28 08:22:52;;;;;;;13.02;1.67;;;4.20;99.90;;;;;;4944269;29;20125;-76
2022/01/28 08:25:20;;;;;;;14.52;2.83;;;4.30;99.90;;;;;;4926449;29;20056;-75
2022/01/28 08:27:46;;;;;;;13.88;2.50;;;4.20;99.90;;;;;;4926940;29;20044;-75
2022/01/28 08:30:13;;;;;;;12.88;2.53;;;4.10;99.90;;;;;;4923483;29;20167;-75
2022/01/28 08:32:39;;;;;;;10.45;2.00;;;4.20;99.90;;;;;;4936984;29;20039;-75
2022/01/28 08:35:06;;;;;;;12.63;2.55;;;4.20;99.90;;;;;;4936446;29;20058;-74
2022/01/28 08:37:32;;;;;;;20.65;2.83;;;4.30;99.90;;;;;;4935741;29;20508;-74
2022/01/28 08:39:59;;;;;;;19.48;2.53;;;4.40;99.90;;;;;;4935724;29;20059;-74
2022/01/28 08:42:25;;;;;;;13.30;2.47;;;4.50;99.90;;;;;;4935156;29;20044;-74
2022/01/28 08:44:50;;;;;;;9.32;2.20;;;4.60;99.90;;;;;;4918231;29;20401;-74
2022/01/28 08:47:16;;;;;;;15.55;2.30;;;4.70;99.90;;;;;;4935741;29;20071;-74
2022/01/28 08:49:41;;;;;;;13.35;2.60;;;4.70;99.90;;;;;;4935648;29;20043;-75
2022/01/28 08:52:07;;;;;;;17.15;1.95;;;4.70;99.90;;;;;;4918421;29;20106;-74
2022/01/28 08:54:33;;;;;;;16.42;2.00;;;4.80;99.90;;;;;;4901975;29;20068;-76
2022/01/28 08:56:58;;;;;;;5.85;1.80;;;4.80;99.90;;;;;;4933647;29;20043;-73
2022/01/28 08:59:24;;;;;;;15.43;3.10;;;4.80;99.90;;;;;;4925987;29;20056;-76
2022/01/28 09:01:50;;;;;;;17.35;2.83;;;4.90;99.90;;;;;;4924531;29;20381;-78
2022/01/28 09:04:15;;;;;;;13.95;2.55;;;4.90;99.90;;;;;;4918858;29;20051;-76
2022/01/28 09:06:41;;;;;;;14.15;3.75;;;5.00;99.90;;;;;;4915931;29;20044;-81
2022/01/28 09:09:07;;;;;;;23.40;3.20;;;5.00;99.90;;;;;;4898694;29;20476;-78
2022/01/28 09:11:45;;;;;;;18.75;2.97;;;5.10;99.90;;;;;;4898804;29;20062;-76
2022/01/28 09:14:15;;;;;;;9.82;2.47;;;5.10;99.90;;;;;;4920315;29;20424;-77
2022/01/28 09:16:42;;;;;;;14.45;1.95;;;5.20;99.90;;;;;;4917703;29;20114;-77
2022/01/28 09:19:08;;;;;;;15.48;2.50;;;5.30;99.90;;;;;;4934872;29;20060;-77
2022/01/28 09:21:34;;;;;;;17.27;2.30;;;5.30;99.90;;;;;;4903625;29;20054;-77
2022/01/28 09:23:59;;;;;;;12.48;2.17;;;5.30;99.90;;;;;;4934814;29;20082;-76
2022/01/28 09:26:25;;;;;;;28.67;2.65;;;5.40;99.90;;;;;;4934723;29;20461;-76
2022/01/28 09:28:51;;;;;;;10.73;2.42;;;5.40;99.90;;;;;;4900651;29;20055;-77
2022/01/28 09:31:16;;;;;;;13.10;2.40;;;5.40;99.90;;;;;;4968199;23;20043;-76
2022/01/28 09:33:43;;;;;;;12.88;2.13;;;5.60;99.90;;;;;;4930656;29;20091;-74
2022/01/28 09:36:09;;;;;;;17.52;2.83;;;5.40;99.90;;;;;;4925260;29;20061;-79
2022/01/28 09:38:36;;;;;;;11.88;2.30;;;5.40;99.90;;;;;;4940926;29;20044;-77
2022/01/28 09:41:04;;;;;;;14.18;2.58;;;5.40;99.90;;;;;;4926133;29;20063;-77
2022/01/28 09:43:31;;;;;;;15.10;2.50;;;5.50;99.90;;;;;;4942023;29;20436;-79
2022/01/28 09:45:57;;;;;;;9.27;2.30;;;5.60;99.90;;;;;;4942141;29;20114;-78
2022/01/28 09:48:23;;;;;;;13.38;2.05;;;5.70;99.90;;;;;;4944912;29;20134;-76
2022/01/28 09:50:50;;;;;;;10.48;3.30;;;5.80;99.90;;;;;;4942470;29;20039;-78
2022/01/28 09:53:18;;;;;;;15.50;1.85;;;5.80;99.90;;;;;;4911337;29;20424;-78
2022/01/28 09:55:45;;;;;;;16.55;2.10;;;5.90;99.90;;;;;;4941754;29;20177;-80
2022/01/28 09:58:11;;;;;;;13.80;2.78;;;5.90;99.90;;;;;;4910917;29;20403;-79
2022/01/28 10:00:42;;;;;;;14.05;2.95;;;5.90;99.90;;;;;;4946625;29;20047;-78
2022/01/28 10:03:39;;;;;;;11.95;2.25;;;6.40;99.90;;;;;;4939561;29;20051;-79
2022/01/28 10:06:05;;;;;;;10.60;2.28;;;6.10;99.90;;;;;;4941049;29;20089;-80
2022/01/28 10:08:32;;;;;;;12.68;1.75;;;6.90;99.90;;;;;;4909209;29;20554;-78
2022/01/28 10:11:10;;;;;;;22.95;1.80;;;6.10;99.90;;;;;;4940066;29;20131;-77
2022/01/28 10:16:07;;;;;;;10.98;1.83;;;6.10;99.90;;;;;;4959458;23;20109;-78
2022/01/28 10:18:58;;;;;;;15.20;1.65;;;6.20;99.90;;;;;;4929154;29;20086;-77
2022/01/28 10:21:39;;;;;;;14.77;2.15;;;6.10;99.90;;;;;;4941258;29;20494;-79
2022/01/28 10:24:07;;;;;;;7.90;1.60;;;6.10;99.90;;;;;;4945433;29;20051;-80
2022/01/28 10:26:53;;;;;;;9.45;1.75;;;6.20;99.90;;;;;;4944154;29;20058;-78
2022/01/28 10:29:31;;;;;;;10.27;2.35;;;6.30;99.90;;;;;;4937671;29;20470;-78
2022/01/28 10:31:59;;;;;;;10.88;1.75;;;6.50;99.90;;;;;;4946322;29;20130;-78
2022/01/28 10:34:30;;;;;;;9.45;1.67;;;6.60;99.90;;;;;;4945236;29;20500;-81
2022/01/28 10:37:28;;;;;;;10.57;1.60;;;6.60;99.90;;;;;;4944373;29;20043;-80
2022/01/28 10:40:02;;;;;;;14.25;1.80;;;6.60;99.90;;;;;;4928877;29;20054;-77
2022/01/28 10:42:41;;;;;;;14.07;3.65;;;6.60;99.90;;;;;;4945229;29;20047;-79
2022/01/28 10:45:16;;;;;;;16.20;2.60;;;6.50;99.90;;;;;;4928215;29;20052;-79
2022/01/28 10:47:42;;;;;;;12.48;2.05;;;6.50;99.90;;;;;;4945874;29;20153;-80
2022/01/28 10:50:28;;;;;;;13.00;2.30;;;6.70;99.90;;;;;;4928470;29;20131;-78
2022/01/28 10:53:05;;;;;;;14.85;2.78;;;6.40;99.90;;;;;;4946045;29;20487;-80
2022/01/28 10:55:33;;;;;;;14.95;2.42;;;6.50;99.90;;;;;;4924753;29;20070;-78
2022/01/28 10:58:02;;;;;;;13.57;2.13;;;6.70;99.90;;;;;;4944208;29;20043;-79
2022/01/28 11:00:31;;;;;;;15.68;2.35;;;6.70;99.90;;;;;;4933793;29;20051;-78
2022/01/28 11:03:03;;;;;;;14.90;2.05;;;6.80;99.90;;;;;;4945561;29;20046;-79
2022/01/28 11:05:31;;;;;;;11.05;2.03;;;7.00;99.90;;;;;;4928325;29;20503;-78
2022/01/28 11:07:59;;;;;;;12.05;1.98;;;7.00;99.90;;;;;;4945547;29;20039;-78
2022/01/28 11:10:24;;;;;;;15.40;2.22;;;7.10;99.90;;;;;;4944100;29;20054;-77
2022/01/28 11:12:54;;;;;;;15.13;3.22;;;7.10;99.90;;;;;;4928113;29;20487;-80
2022/01/28 11:15:21;;;;;;;11.63;1.88;;;7.10;99.90;;;;;;4945651;29;20495;-77
2022/01/28 11:17:51;;;;;;;19.00;1.98;;;7.10;99.90;;;;;;4943348;29;20199;-79
2022/01/28 11:20:22;;;;;;;11.52;2.42;;;7.30;99.90;;;;;;4926467;29;20055;-79
2022/01/28 11:23:03;;;;;;;18.58;3.17;;;7.20;99.90;;;;;;4926846;29;20055;-78
2022/01/28 11:26:08;;;;;;;11.80;2.40;;;7.20;99.90;;;;;;4942982;29;20040;-77
2022/01/28 11:28:47;;;;;;;8.68;2.30;;;7.20;99.90;;;;;;4935264;29;20468;-79
2022/01/28 11:31:14;;;;;;;12.50;1.77;;;7.10;99.90;;;;;;4935492;29;20143;-81
2022/01/28 11:33:49;;;;;;;14.05;2.72;;;7.20;99.90;;;;;;4901774;29;20078;-76
2022/01/28 11:36:34;;;;;;;10.40;2.58;;;7.10;99.90;;;;;;4935243;29;20138;-76
2022/01/28 11:39:17;;;;;;;20.58;2.75;;;7.10;99.90;;;;;;4918163;29;20058;-79
2022/01/28 11:42:00;;;;;;;14.25;1.90;;;7.10;99.90;;;;;;4917377;29;20060;-77
2022/01/28 11:44:48;;;;;;;15.23;2.38;;;7.10;99.90;;;;;;4920367;29;20051;-75
2022/01/28 11:47:23;;;;;;;12.23;2.03;;;7.10;99.90;;;;;;4917823;29;20559;-77
2022/01/28 11:49:57;;;;;;;17.20;2.10;;;7.20;99.90;;;;;;4917772;29;20074;-77
2022/01/28 11:52:29;;;;;;;10.38;1.60;;;7.20;99.90;;;;;;4902479;29;20459;-78
2022/01/28 11:54:55;;;;;;;;;;;7.20;99.90;;;;;;4925157;29;20046;-77
2022/01/28 11:57:26;;;;;;;17.02;2.30;;;7.20;99.90;;;;;;4953811;29;20008;-77
2022/01/28 12:00:11;;;;;;;16.48;2.15;;;7.20;99.90;;;;;;4924576;29;20054;-75
2022/01/28 12:02:47;;;;;;;14.55;2.05;;;7.20;99.90;;;;;;4953190;28;20525;-77
2022/01/28 12:05:24;;;;;;;14.35;1.85;;;7.60;99.90;;;;;;4967602;28;20106;-75
2022/01/28 12:07:50;;;;;;;12.48;2.08;;;7.30;99.90;;;;;;4943775;28;20070;-74
2022/01/28 12:10:17;;;;;;;12.40;1.45;;;7.30;99.90;;;;;;4957894;29;20043;-75
2022/01/28 12:12:49;;;;;;;9.30;1.80;;;7.70;99.90;;;;;;4954266;29;20047;-75
2022/01/28 12:15:16;;;;;;;6.10;1.17;;;7.30;99.90;;;;;;4946353;29;20114;-75
2022/01/28 12:17:50;;;;;;;5.30;1.75;;;7.30;99.90;;;;;;4941731;29;20043;-75
2022/01/28 12:20:15;;;;;;;9.68;1.75;;;7.30;99.90;;;;;;4922780;29;20056;-76
2022/01/28 12:23:00;;;;;;;11.85;2.58;;;7.40;99.90;;;;;;4940506;29;20055;-75
2022/01/28 12:25:43;;;;;;;8.35;1.38;;;7.40;99.90;;;;;;4949932;29;20044;-75
2022/01/28 12:28:12;;;;;;;12.45;2.05;;;7.30;99.90;;;;;;4938150;29;20044;-79
2022/01/28 12:30:38;;;;;;;6.80;1.80;;;7.40;99.90;;;;;;4943846;29;20036;-81
2022/01/28 12:33:04;;;;;;;10.50;2.63;;;7.40;99.90;;;;;;4925040;29;20058;-76
2022/01/28 12:35:30;;;;;;;9.20;1.65;;;7.40;99.90;;;;;;4928836;29;20063;-76
2022/01/28 12:38:01;;;;;;;13.15;2.38;;;7.40;99.90;;;;;;4943356;29;20035;-75
2022/01/28 12:40:30;;;;;;;8.68;1.88;;;7.40;99.90;;;;;;4950064;29;20043;-75
2022/01/28 12:42:55;;;;;;;8.20;1.55;;;7.40;99.90;;;;;;4947278;29;20121;-76
2022/01/28 12:45:22;;;;;;;6.88;1.35;;;7.40;99.90;;;;;;4919971;29;20048;-79
2022/01/28 12:47:48;;;;;;;10.13;1.63;;;7.40;99.90;;;;;;4919689;29;20075;-80
2022/01/28 12:50:15;;;;;;;7.15;1.17;;;7.60;99.90;;;;;;4936894;29;20067;-78
2022/01/28 12:52:41;;;;;;;16.23;2.38;;;7.30;99.90;;;;;;4919270;29;20416;-79
2022/01/28 12:55:10;;;;;;;6.57;1.30;;;7.20;99.90;;;;;;4921767;29;20051;-76
2022/01/28 12:57:41;;;;;;;7.38;1.10;;;7.10;99.90;;;;;;4938657;29;20422;-81
2022/01/28 13:00:08;;;;;;;13.27;1.45;;;8.00;99.90;;;;;;4946723;29;20042;-78
2022/01/28 13:02:34;;;;;;;10.55;1.58;;;7.10;99.90;;;;;;4927079;29;20051;-81
2022/01/28 13:10:23;;;;;;;9.20;1.67;;;6.80;99.90;;;;;;4942833;29;20467;-80
2022/01/28 13:12:49;;;;;;;22.00;2.17;;;7.80;99.90;;;;;;4943692;29;20472;-80
2022/01/28 13:15:16;;;;;;;12.80;1.55;;;7.20;99.90;;;;;;4945137;29;20114;-77
2022/01/28 13:18:05;;;;;;;9.90;2.70;;;7.80;99.90;;;;;;4926369;29;20066;-79
2022/01/28 13:20:42;;;;;;;10.13;1.40;;;7.20;99.90;;;;;;4943422;29;20090;-84
2022/01/28 13:23:10;;;;;;;11.88;1.75;;;7.40;99.90;;;;;;4941940;29;20117;-85
2022/01/28 13:25:36;;;;;;;5.15;0.98;;;7.90;99.90;;;;;;4944341;29;20504;-84
2022/01/28 13:28:05;;;;;;;5.53;1.27;;;7.30;99.90;;;;;;4942620;29;20051;-78
2022/01/28 13:30:39;;;;;;;6.50;1.30;;;7.00;99.90;;;;;;4932931;29;20499;-82
2022/01/28 13:33:28;;;;;;;5.70;1.95;;;7.90;99.90;;;;;;4953605;29;20058;-82
2022/01/28 13:35:59;;;;;;;15.05;1.65;;;7.10;99.90;;;;;;4953643;29;20098;-83
2022/01/28 13:38:34;;;;;;;10.85;1.80;;;7.00;99.90;;;;;;4953385;29;20495;-86
2022/01/28 13:41:24;;;;;;;10.55;1.70;;;7.60;99.90;;;;;;4953419;29;20089;-81
2022/01/28 13:44:00;;;;;;;13.77;1.88;;;7.10;99.90;;;;;;4953820;29;20059;-83
2022/01/28 13:46:32;;;;;;;18.70;2.60;;;7.20;99.90;;;;;;4936186;29;20051;-82
2022/01/28 13:48:57;;;;;;;12.00;2.45;;;7.30;99.90;;;;;;4953321;29;20043;-76
2022/01/28 13:51:26;;;;;;;22.35;2.50;;;7.00;99.90;;;;;;4953373;29;20488;-84
2022/01/28 13:56:43;;;;;;;12.35;1.98;;;6.90;99.90;;;;;;4955093;28;20086;-80
2022/01/28 13:59:30;;;;;;;16.35;2.35;;;6.90;99.90;;;;;;4957123;29;20129;-81
2022/01/28 14:01:59;;;;;;;10.73;1.85;;;7.30;99.90;;;;;;4939846;29;20047;-81
2022/01/28 14:04:46;;;;;;;21.15;2.70;;;6.90;99.90;;;;;;4939284;29;20102;-79
2022/01/28 14:07:30;;;;;;;8.80;1.60;;;7.90;99.90;;;;;;4956009;28;20143;-78
2022/01/28 14:10:05;;;;;;;15.23;2.67;;;8.10;99.90;;;;;;4955576;29;20142;-80
2022/01/28 14:12:48;;;;;;;15.27;2.88;;;6.80;99.90;;;;;;4936604;29;20193;-78
2022/01/28 14:15:32;;;;;;;8.55;2.35;;;6.80;99.90;;;;;;4956433;29;20053;-75
2022/01/28 14:18:02;;;;;;;12.40;1.88;;;6.90;99.90;;;;;;4957004;29;20051;-80
2022/01/28 14:20:29;;;;;;;10.85;1.90;;;7.00;99.90;;;;;;4956108;29;20043;-79
2022/01/28 14:22:54;;;;;;;15.45;1.73;;;7.40;99.90;;;;;;4939335;29;20062;-77
2022/01/28 14:25:23;;;;;;;8.23;1.50;;;6.80;99.90;;;;;;4956345;29;20043;-82
2022/01/28 14:30:44;;;;;;;11.73;2.92;;;7.30;99.90;;;;;;4897722;29;20386;-79
2022/01/28 14:33:11;;;;;;;15.35;2.90;;;6.90;99.90;;;;;;4898276;29;20060;-78
2022/01/28 14:35:38;;;;;;;12.25;1.90;;;6.70;99.90;;;;;;4897761;29;20448;-77
2022/01/28 14:38:05;;;;;;;15.30;2.40;;;6.70;99.90;;;;;;4896419;29;20567;-79
2022/01/28 14:40:31;;;;;;;14.93;2.20;;;6.70;99.90;;;;;;4897155;29;20057;-77
2022/01/28 14:42:57;;;;;;;9.52;1.80;;;6.90;99.90;;;;;;4896486;29;20045;-80